Accueil
METAR-TAF:

METAR-TAF

Aéroports :

Dole, France

Aéroport de Dole-Jura

latitude: 47-02-34N, longitude: 005-26-06E, altitude: 196 m

Observation

Le bulletin a été fait il y a 39 minutes, à 19:00 UTC
Vent 5 kt de sud
Température 3°C
Humidité 87%
Pression 1019 hPa
Visibilité 10 km ou plus
pas de nuages en-dessous de 1500 mètres et pas de cumulonimbus.

METAR: LFGJ 121900Z AUTO 19005KT CAVOK 03/01 Q1019 NOSIG

Heure: 20:39 (19:39 UTC)

Prévision

Le bulletin a été fait il y a 5 heures et 39 minutes, à 14:00 UTC
Prévision valable du 12 à 15 UTC au 12 à 24 UTC
Vent 6 kt de sud/sud-ouest
Visibilité 10 km ou plus
Quelques nuages à une hauteur de 3000 ft

TAF: LFGJ 121400Z 1215/1224 20006KT 9999 FEW030

Observations et prévisions météorologiques de plus de 4000 aéroports (messages METAR et TAF).

Les stations disponibles sont représentées par des disques jaunes et rouges sur la carte.

Passer la souris dessus pour voir le nom de la station.

Cliquer dessus pour voir les observations et prévisions météorologiques.

Pour changer de carte: cliquez sur les boutons verts avec une croix noire pour zoomer, sur le bouton vert avec un tiret pour effectuer un zoom arrière, ou sur les flèches vertes pour les cartes adjacentes.


METAR-TAF: